Time;durP1;ratioP1;P1;durP2;ratioP2;P2;SDS_P1;SDS_P2;PMS_P1;PMS_P2;Temp;Humidity;BMP_temperature;BMP_pressure;BME280_temperature;BME280_humidity;BME280_pressure;Samples;Min_cycle;Max_cycle;Signal;HPM_P1;HPM_P2
2022/01/27 00:01:22;;;;;;;24.38;15.70;;;1.50;99.90;;;;;;7282247;19;2005703;-76
2022/01/27 00:04:02;;;;;;;27.67;15.90;;;1.50;99.90;;;;;;7383265;19;20359;-78
2022/01/27 00:06:30;;;;;;;21.58;14.52;;;1.50;99.90;;;;;;7387264;19;20345;-78
2022/01/27 00:09:01;;;;;;;23.23;15.30;;;1.50;99.90;;;;;;7389126;19;20317;-78
2022/01/27 00:11:27;;;;;;;25.30;15.55;;;1.50;99.90;;;;;;7390080;19;20388;-78
2022/01/27 00:13:59;;;;;;;22.63;15.20;;;1.50;99.90;;;;;;7385637;19;20329;-78
2022/01/27 00:16:28;;;;;;;23.40;16.00;;;1.50;99.90;;;;;;7393522;19;20333;-77
2022/01/27 00:18:55;;;;;;;21.55;15.73;;;1.50;99.90;;;;;;7398259;19;20364;-78
2022/01/27 00:21:23;;;;;;;20.75;13.82;;;1.60;99.90;;;;;;7392947;19;20350;-79
2022/01/27 00:23:49;;;;;;;20.95;15.02;;;1.60;99.90;;;;;;7387416;19;20364;-78
2022/01/27 00:26:15;;;;;;;22.40;14.82;;;1.50;99.90;;;;;;7383799;19;20391;-78
2022/01/27 00:28:42;;;;;;;19.92;14.55;;;1.60;99.90;;;;;;7390698;19;20311;-78
2022/01/27 00:31:09;;;;;;;21.17;14.80;;;1.60;99.90;;;;;;7394885;19;20350;-78
2022/01/27 00:33:35;;;;;;;23.38;15.10;;;1.60;99.90;;;;;;7373698;19;20742;-79
2022/01/27 00:36:03;;;;;;;23.25;15.05;;;1.60;99.90;;;;;;7395430;19;20327;-78
2022/01/27 00:38:29;;;;;;;24.60;15.60;;;1.60;99.90;;;;;;7393740;19;20341;-78
2022/01/27 00:40:55;;;;;;;20.15;14.43;;;1.70;99.90;;;;;;7387197;19;20336;-77
2022/01/27 00:43:21;;;;;;;24.27;14.85;;;1.70;99.90;;;;;;7390183;19;20300;-78
2022/01/27 00:45:56;;;;;;;25.67;15.05;;;1.70;99.90;;;;;;7382744;19;20304;-79
2022/01/27 00:48:25;;;;;;;19.15;14.45;;;1.70;99.90;;;;;;7367186;19;20329;-79
2022/01/27 00:50:57;;;;;;;19.00;13.30;;;1.60;99.90;;;;;;7390424;19;20836;-79
2022/01/27 00:53:47;;;;;;;22.67;14.32;;;1.80;99.90;;;;;;7389834;19;20340;-77
2022/01/27 00:59:21;;;;;;;19.92;13.88;;;1.80;99.90;;;;;;7393244;19;20312;-78
2022/01/27 01:02:02;;;;;;;15.57;12.95;;;1.70;99.90;;;;;;7293248;19;2004457;-78
2022/01/27 01:04:32;;;;;;;19.85;13.07;;;1.70;99.90;;;;;;7284523;19;2007695;-78
2022/01/27 01:06:59;;;;;;;20.17;13.23;;;1.70;99.90;;;;;;7388730;19;20293;-79
2022/01/27 01:14:58;;;;;;;16.90;12.65;;;1.70;99.90;;;;;;7385349;19;20677;-78
2022/01/27 01:17:37;;;;;;;18.23;13.35;;;1.70;99.90;;;;;;7384675;19;20313;-79
2022/01/27 01:30:50;;;;;;;20.23;13.13;;;1.80;99.90;;;;;;7289813;19;2006101;-78
2022/01/27 01:33:22;;;;;;;19.88;14.00;;;1.80;99.90;;;;;;7388861;19;20312;-79
2022/01/27 01:35:49;;;;;;;18.45;13.07;;;1.70;99.90;;;;;;7385716;19;20357;-79
2022/01/27 01:38:18;;;;;;;18.38;13.00;;;1.80;99.90;;;;;;7396255;19;20301;-78
2022/01/27 01:40:48;;;;;;;19.15;12.38;;;1.80;99.90;;;;;;7390191;19;20293;-78
2022/01/27 01:43:15;;;;;;;16.88;11.90;;;1.80;99.90;;;;;;7289619;19;2007058;-78
2022/01/27 01:45:42;;;;;;;15.18;11.93;;;1.80;99.90;;;;;;7388773;19;20328;-78
2022/01/27 01:48:08;;;;;;;15.43;11.68;;;1.80;99.90;;;;;;7374922;19;20436;-78
2022/01/27 01:50:34;;;;;;;15.55;11.48;;;1.80;99.90;;;;;;7387958;19;20296;-78
2022/01/27 01:53:00;;;;;;;17.25;11.63;;;1.90;99.90;;;;;;7389998;19;20333;-78
2022/01/27 01:55:26;;;;;;;12.65;11.27;;;1.80;99.90;;;;;;7368368;19;20354;-78
2022/01/27 01:57:52;;;;;;;14.55;11.23;;;1.90;99.90;;;;;;7372262;19;20422;-78
2022/01/27 02:00:18;;;;;;;17.55;12.38;;;1.90;99.90;;;;;;7386056;19;20316;-78
2022/01/27 02:02:44;;;;;;;18.48;11.93;;;1.90;99.90;;;;;;7387988;19;20340;-79
2022/01/27 02:05:10;;;;;;;17.55;11.00;;;1.90;99.90;;;;;;7383251;19;20344;-78
2022/01/27 02:10:34;;;;;;;14.90;10.80;;;1.90;99.90;;;;;;7381400;19;20316;-78
2022/01/27 02:18:29;;;;;;;13.35;10.45;;;2.00;99.90;;;;;;7281985;19;2004462;-79
2022/01/27 02:20:54;;;;;;;13.47;11.07;;;1.90;99.90;;;;;;7386954;19;20353;-79
2022/01/27 02:23:21;;;;;;;14.73;10.88;;;1.90;99.90;;;;;;7382403;19;20415;-78
2022/01/27 02:25:47;;;;;;;15.88;11.20;;;1.90;99.90;;;;;;7390919;19;20316;-78
2022/01/27 02:28:13;;;;;;;11.93;10.23;;;1.90;99.90;;;;;;7383509;19;20678;-78
2022/01/27 02:30:38;;;;;;;14.73;10.70;;;1.90;99.90;;;;;;7382862;19;20312;-77
2022/01/27 02:33:04;;;;;;;19.00;11.90;;;1.90;99.90;;;;;;7387377;19;20347;-78
2022/01/27 02:35:32;;;;;;;14.55;11.25;;;1.90;99.90;;;;;;7389860;19;20329;-78
2022/01/27 02:37:57;;;;;;;14.00;11.07;;;2.10;99.90;;;;;;7379619;19;20368;-79
2022/01/27 02:40:34;;;;;;;18.30;11.98;;;1.80;99.90;;;;;;7393631;19;20316;-78
2022/01/27 02:43:02;;;;;;;15.93;10.93;;;1.80;99.90;;;;;;7398696;19;20342;-78
2022/01/27 02:45:46;;;;;;;16.83;12.20;;;1.80;99.90;;;;;;7385685;19;20336;-80
2022/01/27 02:48:13;;;;;;;18.40;12.57;;;1.80;99.90;;;;;;7389007;19;20348;-81
2022/01/27 02:51:08;;;;;;;16.92;11.68;;;1.70;99.90;;;;;;7343318;19;20372;-78
2022/01/27 02:53:34;;;;;;;16.88;12.25;;;1.80;99.90;;;;;;7375509;19;20324;-78
2022/01/27 02:56:00;;;;;;;12.93;11.00;;;1.80;99.90;;;;;;7380067;19;20864;-79
2022/01/27 02:58:25;;;;;;;19.05;11.75;;;1.70;99.90;;;;;;7396122;19;20345;-79
2022/01/27 03:00:51;;;;;;;17.73;11.85;;;1.70;99.90;;;;;;7390531;19;20336;-79
2022/01/27 03:03:17;;;;;;;16.27;11.37;;;1.70;99.90;;;;;;7393372;19;20328;-76
2022/01/27 03:05:43;;;;;;;16.53;12.20;;;1.70;99.90;;;;;;7392127;19;20308;-79
2022/01/27 03:08:09;;;;;;;15.45;11.55;;;1.70;99.90;;;;;;7392273;19;20325;-79
2022/01/27 03:10:39;;;;;;;17.27;11.32;;;1.80;99.90;;;;;;7381652;19;20316;-79
2022/01/27 03:13:05;;;;;;;18.95;12.20;;;1.80;99.90;;;;;;7405140;19;20304;-79
2022/01/27 03:15:34;;;;;;;15.82;11.80;;;1.70;99.90;;;;;;7386756;19;20994;-79
2022/01/27 03:18:01;;;;;;;15.43;12.15;;;1.70;99.90;;;;;;7402337;19;20311;-79
2022/01/27 03:20:32;;;;;;;16.70;11.48;;;1.80;99.90;;;;;;7397765;19;20911;-78
2022/01/27 03:23:00;;;;;;;19.20;12.10;;;1.70;99.90;;;;;;7399718;19;20313;-79
2022/01/27 03:25:26;;;;;;;16.20;11.55;;;1.70;99.90;;;;;;7389627;19;20685;-78
2022/01/27 03:27:52;;;;;;;18.55;11.38;;;1.70;99.90;;;;;;7379214;19;20317;-80
2022/01/27 03:30:18;;;;;;;16.48;11.88;;;1.80;99.90;;;;;;7391619;19;20361;-79
2022/01/27 03:32:44;;;;;;;15.93;11.23;;;1.70;99.90;;;;;;7395055;19;20309;-78
2022/01/27 03:35:10;;;;;;;16.38;11.73;;;1.90;99.90;;;;;;7390931;19;20292;-78
2022/01/27 03:37:35;;;;;;;14.37;11.10;;;1.70;99.90;;;;;;7390743;19;20347;-78
2022/01/27 03:40:17;;;;;;;16.33;11.07;;;1.80;99.90;;;;;;7395780;19;20376;-78
2022/01/27 03:42:50;;;;;;;13.70;10.88;;;1.70;99.90;;;;;;7387597;19;20325;-78
2022/01/27 03:45:16;;;;;;;16.67;11.02;;;1.80;99.90;;;;;;7398381;19;20701;-79
2022/01/27 03:47:42;;;;;;;17.90;12.10;;;1.80;99.90;;;;;;7393493;19;20335;-78
2022/01/27 03:50:08;;;;;;;14.43;10.85;;;1.90;99.90;;;;;;7389364;19;20331;-78
2022/01/27 03:52:35;;;;;;;13.82;9.82;;;1.80;99.90;;;;;;7372204;19;20340;-79
2022/01/27 03:55:03;;;;;;;14.05;10.20;;;1.90;99.90;;;;;;7393246;19;20305;-79
2022/01/27 03:57:29;;;;;;;16.88;10.70;;;1.90;99.90;;;;;;7390410;19;20324;-78
2022/01/27 03:59:54;;;;;;;15.17;11.10;;;1.90;99.90;;;;;;7388959;19;20989;-77
2022/01/27 04:02:20;;;;;;;13.70;10.38;;;1.90;99.90;;;;;;7393578;19;20320;-78
2022/01/27 04:04:47;;;;;;;15.02;11.00;;;1.90;99.90;;;;;;7363807;19;20320;-78
2022/01/27 04:07:13;;;;;;;17.48;11.43;;;1.90;99.90;;;;;;7389333;19;20313;-78
2022/01/27 04:09:39;;;;;;;14.27;9.77;;;1.90;99.90;;;;;;7394191;19;20937;-78
2022/01/27 04:12:05;;;;;;;14.47;10.87;;;1.90;99.90;;;;;;7389333;19;20451;-78
2022/01/27 04:14:31;;;;;;;15.02;10.65;;;1.90;99.90;;;;;;7389313;19;20431;-78
2022/01/27 04:16:56;;;;;;;14.90;10.68;;;1.90;99.90;;;;;;7390108;19;20332;-78
2022/01/27 04:19:22;;;;;;;15.88;10.35;;;1.90;99.90;;;;;;7393313;19;20347;-77
2022/01/27 04:21:48;;;;;;;12.07;10.07;;;1.90;99.90;;;;;;7394718;19;20326;-78
2022/01/27 04:24:16;;;;;;;14.53;9.83;;;2.00;99.90;;;;;;7396204;19;20333;-78
2022/01/27 04:26:46;;;;;;;12.90;10.43;;;1.90;99.90;;;;;;7381100;19;20326;-77
2022/01/27 04:29:14;;;;;;;13.40;9.67;;;2.00;99.90;;;;;;7387037;19;20332;-79
2022/01/27 04:31:42;;;;;;;13.70;10.07;;;2.00;99.90;;;;;;7367740;19;20352;-78
2022/01/27 04:34:08;;;;;;;11.90;9.80;;;2.00;99.90;;;;;;7390013;19;21082;-78
2022/01/27 04:36:35;;;;;;;12.13;9.77;;;1.90;99.90;;;;;;7393485;19;20297;-78
2022/01/27 04:39:11;;;;;;;12.48;9.43;;;1.90;99.90;;;;;;7393750;19;20368;-78
2022/01/27 04:41:50;;;;;;;12.52;9.63;;;2.10;99.90;;;;;;7403698;19;20355;-79
2022/01/27 04:44:30;;;;;;;12.85;10.48;;;2.00;99.90;;;;;;7370724;19;20630;-78
2022/01/27 04:47:04;;;;;;;13.27;9.80;;;2.00;99.90;;;;;;7388382;19;20331;-79
2022/01/27 04:49:29;;;;;;;11.03;9.37;;;2.20;99.90;;;;;;7388151;19;20350;-78
2022/01/27 04:51:55;;;;;;;13.17;10.43;;;2.00;99.90;;;;;;7387397;19;20308;-79
2022/01/27 04:54:53;;;;;;;13.95;9.85;;;2.10;99.90;;;;;;7385321;19;20336;-79
2022/01/27 04:57:10;;;;;;;13.85;10.32;;;2.10;99.90;;;;;;7280240;19;2004486;-78
2022/01/27 04:59:40;;;;;;;13.77;10.47;;;2.10;99.90;;;;;;7384214;19;20316;-77
2022/01/27 05:02:16;;;;;;;15.00;10.85;;;2.30;99.90;;;;;;7383223;19;20400;-78
2022/01/27 05:04:51;;;;;;;17.33;10.98;;;2.10;99.90;;;;;;7405760;19;20347;-80
2022/01/27 05:07:30;;;;;;;13.13;10.55;;;2.10;99.90;;;;;;7377329;19;20380;-78
2022/01/27 05:10:11;;;;;;;13.48;10.48;;;2.10;99.90;;;;;;7342337;19;20333;-78
2022/01/27 05:12:47;;;;;;;15.55;10.40;;;2.10;99.90;;;;;;7380378;19;20356;-79
2022/01/27 05:15:14;;;;;;;16.47;10.57;;;2.10;99.90;;;;;;7371220;19;20348;-78
2022/01/27 05:17:41;;;;;;;13.37;9.83;;;2.00;99.90;;;;;;7384747;19;20316;-79
2022/01/27 05:20:08;;;;;;;13.13;9.75;;;2.00;99.90;;;;;;7401424;19;20328;-78
2022/01/27 05:22:37;;;;;;;15.25;12.80;;;2.10;99.90;;;;;;7395566;19;20763;-81
2022/01/27 05:25:03;;;;;;;13.25;10.80;;;2.00;99.90;;;;;;7365844;19;20321;-80
2022/01/27 05:27:38;;;;;;;13.18;10.18;;;2.00;99.90;;;;;;7349051;19;20345;-79
2022/01/27 05:30:09;;;;;;;14.80;10.57;;;2.00;99.90;;;;;;7377803;19;20377;-82
2022/01/27 05:32:36;;;;;;;14.45;9.32;;;2.10;99.90;;;;;;7345204;19;20360;-78
2022/01/27 05:35:11;;;;;;;11.10;9.15;;;2.10;99.90;;;;;;7384945;19;20316;-78
2022/01/27 05:37:48;;;;;;;12.50;9.77;;;2.00;99.90;;;;;;7361703;19;20329;-80
2022/01/27 05:40:17;;;;;;;15.25;9.98;;;2.00;99.90;;;;;;7390904;19;20377;-79
2022/01/27 05:42:43;;;;;;;13.23;9.48;;;2.10;99.90;;;;;;7377212;19;20322;-79
2022/01/27 05:45:32;;;;;;;15.10;9.83;;;2.00;99.90;;;;;;7399041;19;20316;-79
2022/01/27 05:48:10;;;;;;;13.57;9.15;;;2.10;99.90;;;;;;7296333;19;2005170;-79
2022/01/27 05:50:38;;;;;;;11.27;8.77;;;2.10;99.90;;;;;;7381101;19;20325;-79
2022/01/27 05:53:05;;;;;;;13.02;9.52;;;2.10;99.90;;;;;;7357219;19;20308;-79
2022/01/27 05:55:30;;;;;;;9.48;8.52;;;2.10;99.90;;;;;;7386813;19;20352;-79
2022/01/27 05:57:57;;;;;;;11.60;9.23;;;2.10;99.90;;;;;;7388934;19;20663;-79
2022/01/27 06:00:23;;;;;;;10.77;8.02;;;2.00;99.90;;;;;;7389639;19;20343;-78
2022/01/27 06:02:54;;;;;;;10.55;8.02;;;2.10;99.90;;;;;;7392355;19;20312;-78
2022/01/27 06:05:20;;;;;;;9.45;8.15;;;2.10;99.90;;;;;;7376034;19;20912;-78
2022/01/27 06:07:46;;;;;;;10.07;8.47;;;2.10;99.90;;;;;;7386458;19;20331;-79
2022/01/27 06:10:12;;;;;;;11.98;8.70;;;2.10;99.90;;;;;;7387789;19;20359;-80
2022/01/27 06:12:49;;;;;;;11.40;8.55;;;2.10;99.90;;;;;;7397530;19;20309;-79
2022/01/27 06:15:19;;;;;;;11.40;8.02;;;2.00;99.90;;;;;;7293129;19;2004422;-79
2022/01/27 06:17:45;;;;;;;9.70;8.23;;;2.10;99.90;;;;;;7386450;19;20335;-79
2022/01/27 06:20:11;;;;;;;11.83;8.10;;;2.00;99.90;;;;;;7393367;19;20316;-78
2022/01/27 06:22:37;;;;;;;9.57;7.57;;;2.00;99.90;;;;;;7389438;19;20888;-80
2022/01/27 06:25:05;;;;;;;8.82;7.90;;;2.00;99.90;;;;;;7387690;19;20408;-79
2022/01/27 06:27:30;;;;;;;9.75;8.55;;;2.00;99.90;;;;;;7385697;19;20353;-80
2022/01/27 06:29:56;;;;;;;12.07;8.75;;;2.00;99.90;;;;;;7383231;19;21404;-78
2022/01/27 06:32:22;;;;;;;10.98;8.85;;;2.00;99.90;;;;;;7394029;19;20340;-78
2022/01/27 06:34:49;;;;;;;10.68;9.18;;;1.90;99.90;;;;;;7390949;19;20312;-79
2022/01/27 06:37:15;;;;;;;13.35;8.95;;;2.00;99.90;;;;;;7394300;19;20328;-79
2022/01/27 06:39:41;;;;;;;10.73;8.50;;;1.90;99.90;;;;;;7385042;19;20312;-80
2022/01/27 06:42:08;;;;;;;10.75;8.95;;;1.90;99.90;;;;;;7383445;19;20312;-79
2022/01/27 06:44:34;;;;;;;10.30;8.40;;;1.90;99.90;;;;;;7390539;19;20334;-79
2022/01/27 06:47:01;;;;;;;9.88;8.52;;;2.00;99.90;;;;;;7395308;19;20319;-78
2022/01/27 06:49:26;;;;;;;11.80;8.65;;;1.90;99.90;;;;;;7389143;19;20296;-78
2022/01/27 06:51:52;;;;;;;11.70;8.00;;;2.00;99.90;;;;;;7398332;19;20312;-79
2022/01/27 06:54:18;;;;;;;8.98;8.02;;;2.00;99.90;;;;;;7391572;19;20974;-78
2022/01/27 06:57:07;;;;;;;8.60;7.70;;;2.10;99.90;;;;;;7397046;19;20314;-78
2022/01/27 06:59:35;;;;;;;11.80;8.30;;;2.00;99.90;;;;;;7394325;19;20349;-78
2022/01/27 07:02:01;;;;;;;10.60;8.45;;;2.00;99.90;;;;;;7394292;19;20406;-78
2022/01/27 07:04:28;;;;;;;8.80;7.90;;;2.00;99.90;;;;;;7394760;19;20301;-79
2022/01/27 07:06:55;;;;;;;11.88;8.60;;;2.00;99.90;;;;;;7395647;19;20399;-79
2022/01/27 07:09:21;;;;;;;13.05;8.15;;;2.00;99.90;;;;;;7393090;19;20301;-78
2022/01/27 07:11:47;;;;;;;9.33;8.10;;;2.00;99.90;;;;;;7390527;19;20322;-79
2022/01/27 07:14:13;;;;;;;10.70;8.40;;;2.10;99.90;;;;;;7382987;19;20320;-79
2022/01/27 07:16:40;;;;;;;10.80;9.05;;;2.00;99.90;;;;;;7401097;19;20316;-80
2022/01/27 07:19:06;;;;;;;11.13;8.40;;;2.00;99.90;;;;;;7393626;19;20362;-79
2022/01/27 07:21:33;;;;;;;12.57;8.63;;;2.00;99.90;;;;;;7398162;19;20313;-79
2022/01/27 07:23:59;;;;;;;10.32;8.45;;;2.00;99.90;;;;;;7399607;19;20372;-79
2022/01/27 07:26:26;;;;;;;12.60;10.00;;;2.00;99.90;;;;;;7389712;19;20345;-79
2022/01/27 07:28:55;;;;;;;8.82;7.95;;;2.00;99.90;;;;;;7390238;19;20330;-78
2022/01/27 07:31:28;;;;;;;10.15;8.55;;;2.00;99.90;;;;;;7399752;19;20341;-79
2022/01/27 07:33:58;;;;;;;10.93;8.88;;;2.00;99.90;;;;;;7394339;19;20297;-79
2022/01/27 07:36:26;;;;;;;11.60;8.55;;;2.20;99.90;;;;;;7401538;19;20345;-79
2022/01/27 07:38:53;;;;;;;12.30;9.80;;;2.00;99.90;;;;;;7398133;19;20329;-79
2022/01/27 07:41:20;;;;;;;12.90;9.07;;;2.00;99.90;;;;;;7398662;19;20348;-78
2022/01/27 07:43:47;;;;;;;10.93;9.07;;;2.00;99.90;;;;;;7396644;19;20348;-79
2022/01/27 07:46:14;;;;;;;11.32;9.05;;;2.00;99.90;;;;;;7392497;19;20332;-81
2022/01/27 07:48:43;;;;;;;11.90;9.30;;;2.00;99.90;;;;;;7398144;19;20336;-80
2022/01/27 07:51:09;;;;;;;11.88;8.77;;;2.00;99.90;;;;;;7398659;19;20675;-79
2022/01/27 07:53:37;;;;;;;12.07;9.13;;;2.10;99.90;;;;;;7382767;19;20330;-79
2022/01/27 07:56:04;;;;;;;11.70;8.98;;;2.00;99.90;;;;;;7388181;19;20320;-79
2022/01/27 07:58:31;;;;;;;12.82;9.38;;;2.10;99.90;;;;;;7393056;19;20327;-79
2022/01/27 08:00:58;;;;;;;11.47;9.17;;;2.10;99.90;;;;;;7398934;19;20333;-81
2022/01/27 08:03:24;;;;;;;11.23;9.02;;;2.10;99.90;;;;;;7398266;19;20674;-79
2022/01/27 08:05:52;;;;;;;10.68;8.60;;;2.20;99.90;;;;;;7398953;19;20316;-79
2022/01/27 08:08:17;;;;;;;11.75;9.38;;;2.20;99.90;;;;;;7390578;19;20358;-77
2022/01/27 08:10:44;;;;;;;14.20;10.60;;;2.10;99.90;;;;;;7397826;19;20340;-78
2022/01/27 08:13:11;;;;;;;11.10;8.90;;;2.30;99.90;;;;;;7396611;19;20305;-79
2022/01/27 08:15:36;;;;;;;12.02;9.15;;;2.20;99.90;;;;;;7379099;19;20361;-78
2022/01/27 08:18:03;;;;;;;12.15;9.30;;;2.30;99.90;;;;;;7395405;19;20329;-78
2022/01/27 08:20:33;;;;;;;14.80;10.02;;;2.20;99.90;;;;;;7393898;19;20328;-78
2022/01/27 08:23:00;;;;;;;12.10;9.63;;;2.20;99.90;;;;;;7397350;19;20324;-78
2022/01/27 08:25:28;;;;;;;11.00;8.73;;;2.20;99.90;;;;;;7406476;19;20304;-78
2022/01/27 08:27:59;;;;;;;13.75;9.20;;;2.20;99.90;;;;;;7393645;19;20347;-79
2022/01/27 08:30:29;;;;;;;11.75;9.65;;;2.10;99.90;;;;;;7383326;19;20344;-78
2022/01/27 08:33:04;;;;;;;12.90;9.48;;;2.10;99.90;;;;;;7390546;19;20328;-78
2022/01/27 08:35:30;;;;;;;12.00;8.48;;;2.10;99.90;;;;;;7396862;19;20340;-78
2022/01/27 08:37:56;;;;;;;11.15;8.82;;;2.10;99.90;;;;;;7387067;19;21104;-79
2022/01/27 08:40:23;;;;;;;11.90;8.63;;;2.20;99.90;;;;;;7373874;19;20301;-78
2022/01/27 08:42:49;;;;;;;10.43;8.07;;;2.10;99.90;;;;;;7393452;19;20328;-78
2022/01/27 08:45:16;;;;;;;12.63;8.97;;;2.10;99.90;;;;;;7393678;19;20308;-78
2022/01/27 08:47:46;;;;;;;9.57;7.50;;;2.20;99.90;;;;;;7399106;19;20313;-78
2022/01/27 08:50:13;;;;;;;11.88;8.40;;;2.10;99.90;;;;;;7391990;19;20296;-79
2022/01/27 08:52:40;;;;;;;10.50;8.77;;;2.10;99.90;;;;;;7391200;19;20880;-80
2022/01/27 08:55:08;;;;;;;8.63;7.55;;;2.10;99.90;;;;;;7392537;19;20765;-79
2022/01/27 08:57:38;;;;;;;9.85;7.93;;;2.10;99.90;;;;;;7394212;19;20333;-78
2022/01/27 09:00:07;;;;;;;10.75;7.63;;;2.20;99.90;;;;;;7385608;19;20365;-78
2022/01/27 09:02:34;;;;;;;7.88;7.07;;;2.10;99.90;;;;;;7389768;19;20327;-78
2022/01/27 09:05:00;;;;;;;10.05;7.63;;;2.10;99.90;;;;;;7392031;19;20332;-78
2022/01/27 09:07:26;;;;;;;9.63;7.70;;;2.10;99.90;;;;;;7390317;19;20289;-78
2022/01/27 09:09:52;;;;;;;10.68;8.07;;;2.00;99.90;;;;;;7389695;19;20313;-82
2022/01/27 09:12:18;;;;;;;8.77;7.63;;;2.10;99.90;;;;;;7393749;19;20327;-78
2022/01/27 09:14:45;;;;;;;10.70;7.23;;;2.20;99.90;;;;;;7392423;19;20370;-78
2022/01/27 09:17:12;;;;;;;8.40;7.05;;;2.20;99.90;;;;;;7396241;19;20332;-79
2022/01/27 09:19:40;;;;;;;8.95;6.65;;;2.20;99.90;;;;;;7392900;19;20308;-78
2022/01/27 09:22:15;;;;;;;7.78;6.95;;;2.20;99.90;;;;;;7394499;19;20325;-81
2022/01/27 09:27:15;;;;;;;10.18;7.55;;;2.20;99.90;;;;;;7393980;19;20308;-78
2022/01/27 09:29:41;;;;;;;8.07;7.28;;;2.20;99.90;;;;;;7372999;19;20308;-79
2022/01/27 09:32:11;;;;;;;8.88;7.18;;;2.20;99.90;;;;;;7369141;19;20306;-79
2022/01/27 09:34:38;;;;;;;8.30;7.40;;;2.30;99.90;;;;;;7393625;19;20336;-78
2022/01/27 09:37:09;;;;;;;7.85;7.05;;;2.20;99.90;;;;;;7386482;19;20840;-79
2022/01/27 09:39:40;;;;;;;9.00;7.55;;;2.20;99.90;;;;;;7375905;19;20313;-79
2022/01/27 09:42:08;;;;;;;7.97;7.18;;;2.20;99.90;;;;;;7374703;19;20721;-79
2022/01/27 09:44:36;;;;;;;8.00;6.90;;;2.20;99.90;;;;;;7399606;19;20363;-79
2022/01/27 09:47:07;;;;;;;9.40;7.32;;;2.30;99.90;;;;;;7399833;19;20364;-79
2022/01/27 09:49:52;;;;;;;8.70;7.55;;;2.30;99.90;;;;;;7384032;19;20348;-79
2022/01/27 09:52:20;;;;;;;9.27;8.00;;;2.30;99.90;;;;;;7277284;19;2004446;-79
2022/01/27 09:54:48;;;;;;;8.93;7.53;;;2.30;99.90;;;;;;7378054;19;20333;-80
2022/01/27 09:57:17;;;;;;;9.25;7.85;;;2.30;99.90;;;;;;7382523;19;20337;-80
2022/01/27 09:59:44;;;;;;;10.20;7.70;;;2.30;99.90;;;;;;7360212;19;20396;-79
2022/01/27 10:02:18;;;;;;;9.45;7.68;;;2.30;99.90;;;;;;7401177;19;20322;-79
2022/01/27 10:04:47;;;;;;;9.80;8.15;;;2.30;99.90;;;;;;7299241;19;2004682;-78
2022/01/27 10:07:28;;;;;;;8.25;7.45;;;2.30;99.90;;;;;;7379905;19;20305;-79
2022/01/27 10:10:12;;;;;;;8.90;7.53;;;2.40;99.90;;;;;;7305166;19;2004415;-80
2022/01/27 10:12:45;;;;;;;9.75;8.10;;;2.40;99.90;;;;;;7283623;19;2004441;-78
2022/01/27 10:15:19;;;;;;;8.75;7.45;;;2.40;99.90;;;;;;7282404;19;2004449;-79
2022/01/27 10:18:18;;;;;;;10.57;7.65;;;2.40;99.90;;;;;;7392722;19;20389;-80
2022/01/27 10:20:59;;;;;;;8.98;7.47;;;2.40;99.90;;;;;;7254690;19;2004605;-79
2022/01/27 10:23:30;;;;;;;12.52;8.63;;;2.40;99.90;;;;;;7383633;19;20348;-78
2022/01/27 10:26:08;;;;;;;9.23;8.00;;;2.30;99.90;;;;;;7368054;19;20345;-79
2022/01/27 10:31:12;;;;;;;7.80;6.90;;;2.40;99.90;;;;;;7337568;19;20327;-79
2022/01/27 10:34:05;;;;;;;11.52;8.18;;;2.30;99.90;;;;;;7375221;19;20352;-79
2022/01/27 10:36:41;;;;;;;11.40;8.13;;;2.40;99.90;;;;;;7303385;19;2004558;-79
2022/01/27 10:39:20;;;;;;;9.07;7.93;;;2.40;99.90;;;;;;7398015;19;20328;-78
2022/01/27 10:42:09;;;;;;;10.73;8.23;;;2.50;99.90;;;;;;7375392;19;20332;-79
2022/01/27 10:44:42;;;;;;;8.75;7.85;;;2.50;99.90;;;;;;7366682;19;20325;-81
2022/01/27 10:47:19;;;;;;;8.93;7.85;;;2.50;99.90;;;;;;7396360;19;20321;-79
2022/01/27 10:49:57;;;;;;;9.23;7.80;;;2.50;99.90;;;;;;7389556;19;20356;-80
2022/01/27 10:52:48;;;;;;;9.93;8.05;;;2.40;99.90;;;;;;7375835;19;20875;-80
2022/01/27 10:55:18;;;;;;;9.65;8.65;;;2.40;99.90;;;;;;7265483;19;2004489;-79
2022/01/27 10:57:50;;;;;;;11.40;8.48;;;2.50;99.90;;;;;;7403991;19;20320;-79
2022/01/27 11:00:22;;;;;;;11.75;8.70;;;2.40;99.90;;;;;;7398106;19;20329;-79
2022/01/27 11:03:17;;;;;;;11.82;8.40;;;2.50;99.90;;;;;;7244907;19;2004405;-79
2022/01/27 11:05:46;;;;;;;11.25;8.50;;;2.50;99.90;;;;;;7388209;19;20316;-79
2022/01/27 11:08:26;;;;;;;11.18;9.15;;;2.50;99.90;;;;;;7368319;19;20320;-79
2022/01/27 11:11:05;;;;;;;13.82;9.68;;;2.50;99.90;;;;;;7292573;19;2004432;-80
2022/01/27 11:14:04;;;;;;;8.97;8.07;;;2.40;99.90;;;;;;7280856;19;2004269;-80
2022/01/27 11:16:48;;;;;;;11.57;8.75;;;2.50;99.90;;;;;;7290051;19;20354;-78
2022/01/27 11:19:52;;;;;;;11.13;8.77;;;2.50;99.90;;;;;;7308909;19;2004495;-79
2022/01/27 11:27:41;;;;;;;9.98;8.73;;;2.60;99.90;;;;;;7369459;19;20297;-81
2022/01/27 11:30:38;;;;;;;9.30;7.97;;;2.60;99.90;;;;;;7311102;19;2005454;-78
2022/01/27 11:33:10;;;;;;;10.60;8.98;;;2.50;99.90;;;;;;7305165;19;2006433;-79
2022/01/27 11:35:46;;;;;;;8.93;7.82;;;2.80;99.90;;;;;;7407923;19;20316;-79
2022/01/27 11:38:12;;;;;;;11.10;8.90;;;2.60;99.90;;;;;;7366130;19;20337;-82
2022/01/27 11:40:41;;;;;;;10.70;8.32;;;2.60;99.90;;;;;;7402443;19;20336;-78
2022/01/27 11:43:20;;;;;;;10.38;8.35;;;2.80;99.90;;;;;;7385334;19;20356;-79
2022/01/27 11:45:52;;;;;;;9.25;7.78;;;2.60;99.90;;;;;;7399207;19;20324;-79
2022/01/27 11:48:25;;;;;;;10.27;8.63;;;2.60;99.90;;;;;;7395657;19;20329;-79
2022/01/27 11:50:59;;;;;;;9.40;8.43;;;2.60;99.90;;;;;;7388451;19;20336;-80
2022/01/27 11:53:40;;;;;;;9.85;8.07;;;2.70;99.90;;;;;;7290917;19;2004440;-79
2022/01/27 11:56:33;;;;;;;9.20;7.88;;;2.70;99.90;;;;;;7398987;19;20348;-80
2022/01/27 11:59:11;;;;;;;12.32;8.88;;;2.60;99.90;;;;;;7287243;19;2004597;-79
2022/01/27 12:01:58;;;;;;;11.02;8.35;;;2.60;99.90;;;;;;7349105;19;20317;-79
2022/01/27 12:04:30;;;;;;;8.90;7.97;;;2.60;99.90;;;;;;7369609;19;20316;-79
2022/01/27 12:07:10;;;;;;;12.82;9.32;;;2.70;99.90;;;;;;7311931;19;20398;-78
2022/01/27 12:09:37;;;;;;;11.82;8.95;;;2.70;99.90;;;;;;7369834;19;21624;-79
2022/01/27 12:12:13;;;;;;;8.77;7.88;;;2.70;99.90;;;;;;7361652;19;20337;-79
2022/01/27 12:14:41;;;;;;;9.90;8.15;;;2.70;99.90;;;;;;7402591;19;20341;-79
2022/01/27 12:17:27;;;;;;;11.73;8.88;;;2.70;99.90;;;;;;7378508;19;20352;-79
2022/01/27 12:20:50;;;;;;;8.88;7.97;;;2.80;99.90;;;;;;7351784;19;20324;-79
2022/01/27 12:23:16;;;;;;;10.43;7.80;;;2.70;99.90;;;;;;7164510;19;2004506;-80
2022/01/27 12:26:04;;;;;;;11.48;9.07;;;3.00;99.90;;;;;;7394859;19;20435;-79
2022/01/27 12:28:40;;;;;;;10.95;8.75;;;3.00;99.90;;;;;;7236307;19;2004299;-79
2022/01/27 12:31:16;;;;;;;9.60;7.85;;;3.00;99.90;;;;;;7374684;19;20360;-79
2022/01/27 12:33:54;;;;;;;11.38;8.02;;;3.00;99.90;;;;;;7363552;19;20343;-79
2022/01/27 12:37:20;;;;;;;11.13;7.97;;;3.00;99.90;;;;;;7341642;19;20336;-79
2022/01/27 12:40:15;;;;;;;10.93;8.43;;;2.90;99.90;;;;;;7290429;19;2004359;-79
2022/01/27 12:43:06;;;;;;;9.80;7.37;;;2.80;99.90;;;;;;7391497;19;20360;-78
2022/01/27 12:45:44;;;;;;;15.77;10.18;;;2.90;99.90;;;;;;7240903;19;2004404;-78
2022/01/27 12:48:25;;;;;;;9.70;8.52;;;2.90;99.90;;;;;;7335290;19;20336;-80
2022/01/27 12:51:00;;;;;;;12.43;8.73;;;2.90;99.90;;;;;;7405985;19;20312;-79
2022/01/27 12:53:28;;;;;;;10.77;8.52;;;2.90;99.90;;;;;;7375706;19;20337;-80
2022/01/27 12:55:55;;;;;;;12.48;8.82;;;2.80;99.90;;;;;;7402934;19;20388;-80
2022/01/27 12:58:21;;;;;;;11.07;8.85;;;2.60;99.90;;;;;;7398750;19;20348;-79
2022/01/27 13:00:48;;;;;;;9.98;8.63;;;2.60;99.90;;;;;;7401428;19;20331;-79
2022/01/27 13:03:16;;;;;;;9.63;8.60;;;2.70;99.90;;;;;;7405391;19;20316;-78
2022/01/27 13:05:49;;;;;;;10.32;8.70;;;2.60;99.90;;;;;;7377647;19;20329;-79
2022/01/27 13:08:31;;;;;;;12.38;9.60;;;2.60;99.90;;;;;;7403746;19;20324;-79
2022/01/27 13:11:09;;;;;;;10.10;8.27;;;2.60;99.90;;;;;;7395608;19;20312;-78
2022/01/27 13:13:40;;;;;;;12.00;8.85;;;2.50;99.90;;;;;;7383571;19;20319;-79
2022/01/27 13:16:20;;;;;;;11.88;9.55;;;2.60;99.90;;;;;;7402570;19;20345;-79
2022/01/27 13:19:07;;;;;;;12.45;8.98;;;2.60;99.90;;;;;;7398746;19;20325;-79
2022/01/27 13:21:42;;;;;;;11.55;8.82;;;2.60;99.90;;;;;;7390525;19;20331;-79
2022/01/27 13:24:15;;;;;;;11.70;9.05;;;2.70;99.90;;;;;;7403425;19;20297;-79
2022/01/27 13:26:44;;;;;;;10.30;8.02;;;2.70;99.90;;;;;;7403010;19;20368;-79
2022/01/27 13:29:27;;;;;;;9.55;8.55;;;2.70;99.90;;;;;;7400092;19;20333;-79
2022/01/27 13:31:56;;;;;;;10.27;8.13;;;2.70;99.90;;;;;;7392004;19;20429;-79
2022/01/27 13:34:22;;;;;;;11.73;8.38;;;2.70;99.90;;;;;;7394133;19;20305;-79
2022/01/27 13:37:05;;;;;;;9.43;7.88;;;2.80;99.90;;;;;;7389888;19;20349;-79
2022/01/27 13:42:31;;;;;;;10.40;7.28;;;2.90;99.90;;;;;;7275681;19;2004289;-79
2022/01/27 13:45:02;;;;;;;13.27;8.05;;;2.90;99.90;;;;;;7400732;19;20351;-82